createdAt,value
2023-02-23T00:00:32.349Z,7.00
2023-02-23T00:03:02.060Z,6.60
2023-02-23T00:05:32.355Z,5.50
2023-02-23T00:08:02.096Z,6.10
2023-02-23T00:10:33.839Z,5.50
2023-02-23T00:13:02.706Z,5.40
2023-02-23T00:15:32.316Z,5.70
2023-02-23T00:18:01.140Z,11.00
2023-02-23T00:20:30.394Z,12.00
2023-02-23T00:22:59.128Z,10.20
2023-02-23T00:25:28.110Z,15.30
2023-02-23T00:27:59.563Z,21.50
2023-02-23T00:30:28.328Z,31.80
2023-02-23T00:32:56.788Z,29.20
2023-02-23T00:35:25.498Z,49.50
2023-02-23T00:37:58.530Z,48.00
2023-02-23T00:40:27.879Z,20.90
2023-02-23T00:42:56.318Z,26.00
2023-02-23T00:45:27.070Z,23.10
2023-02-23T00:47:55.455Z,16.00
2023-02-23T00:50:24.608Z,17.20
2023-02-23T00:52:53.073Z,13.60
2023-02-23T00:55:21.488Z,11.00
2023-02-23T00:57:50.523Z,8.20
2023-02-23T01:00:21.002Z,6.30
2023-02-23T01:02:51.404Z,5.60
2023-02-23T01:05:21.100Z,5.50
2023-02-23T01:07:51.316Z,5.50
2023-02-23T01:10:20.030Z,5.40
2023-02-23T01:12:51.138Z,4.90
2023-02-23T01:15:20.489Z,5.60
2023-02-23T01:17:49.025Z,5.40
2023-02-23T01:20:19.365Z,5.60
2023-02-23T01:22:49.833Z,5.40
2023-02-23T01:25:18.626Z,5.30
2023-02-23T01:27:47.127Z,5.30
2023-02-23T01:30:15.833Z,6.00
2023-02-23T01:32:46.134Z,6.30
2023-02-23T01:35:14.622Z,5.20
2023-02-23T01:37:43.116Z,5.30
2023-02-23T01:40:16.747Z,5.60
2023-02-23T01:42:49.286Z,6.10
2023-02-23T01:45:26.385Z,4.80
2023-02-23T01:48:07.333Z,4.80
2023-02-23T01:50:49.780Z,5.20
2023-02-23T01:53:18.592Z,4.60
2023-02-23T01:55:51.484Z,5.30
2023-02-23T01:58:29.727Z,4.90
2023-02-23T02:01:02.013Z,4.50
2023-02-23T02:06:05.194Z,4.90
2023-02-23T02:08:34.046Z,5.10
2023-02-23T02:11:25.997Z,4.90
2023-02-23T02:14:02.794Z,6.10
2023-02-23T02:16:35.406Z,6.00
2023-02-23T02:19:17.077Z,7.70
2023-02-23T02:22:15.036Z,6.60
2023-02-23T02:25:25.753Z,10.10
2023-02-23T02:28:04.645Z,8.70
2023-02-23T02:30:41.971Z,8.90
2023-02-23T02:33:35.475Z,5.50
2023-02-23T02:36:18.819Z,5.00
2023-02-23T02:39:10.894Z,4.60
2023-02-23T02:41:51.754Z,6.70
2023-02-23T02:44:42.348Z,11.30
2023-02-23T02:47:19.925Z,11.60
2023-02-23T02:50:24.966Z,13.00
2023-02-23T02:52:59.548Z,7.60
2023-02-23T02:55:29.373Z,7.10
2023-02-23T02:57:59.277Z,7.00
2023-02-23T03:00:59.993Z,6.00
2023-02-23T03:03:55.646Z,5.40
2023-02-23T03:06:49.516Z,6.10
2023-02-23T03:09:53.071Z,5.90
2023-02-23T03:12:43.353Z,6.10
2023-02-23T03:15:51.611Z,7.60
2023-02-23T03:18:55.716Z,5.80
2023-02-23T03:21:47.899Z,6.30
2023-02-23T03:24:51.768Z,5.40
2023-02-23T03:27:57.980Z,6.40
2023-02-23T03:31:10.790Z,5.60
2023-02-23T03:34:03.596Z,5.50
2023-02-23T03:36:53.385Z,4.90
2023-02-23T03:39:56.205Z,5.30
2023-02-23T03:42:45.830Z,5.10
2023-02-23T03:45:35.736Z,5.30
2023-02-23T03:48:25.173Z,4.50
2023-02-23T03:51:15.522Z,6.00
2023-02-23T03:54:37.295Z,6.00
2023-02-23T03:57:25.061Z,6.40
2023-02-23T04:00:16.101Z,5.50
2023-02-23T04:03:05.838Z,5.80
2023-02-23T04:05:56.299Z,5.50
2023-02-23T04:08:50.139Z,5.20
2023-02-23T04:11:58.791Z,4.60
2023-02-23T04:14:56.375Z,6.40
2023-02-23T04:17:27.010Z,5.60
2023-02-23T04:19:55.513Z,6.10
2023-02-23T04:22:25.428Z,7.20
2023-02-23T04:24:53.977Z,8.30
2023-02-23T04:27:22.418Z,9.00
2023-02-23T04:29:50.860Z,9.70
2023-02-23T04:32:23.480Z,10.00
2023-02-23T04:34:52.096Z,7.80
2023-02-23T04:37:20.583Z,10.80
2023-02-23T04:39:50.616Z,10.90
2023-02-23T04:42:19.094Z,9.20
2023-02-23T04:44:47.833Z,6.60
2023-02-23T04:47:16.388Z,6.90
2023-02-23T04:49:44.848Z,7.60
2023-02-23T04:52:13.719Z,8.60
2023-02-23T04:54:43.528Z,9.10
2023-02-23T04:57:12.226Z,8.30
2023-02-23T04:59:40.887Z,11.40
2023-02-23T05:02:10.095Z,9.90
2023-02-23T05:04:39.233Z,13.30
2023-02-23T05:07:07.647Z,9.60
2023-02-23T05:09:36.053Z,8.50
2023-02-23T05:12:04.850Z,6.50
2023-02-23T05:14:34.242Z,6.10
2023-02-23T05:17:03.654Z,7.90
2023-02-23T05:19:35.606Z,7.60
2023-02-23T05:22:05.657Z,6.40
2023-02-23T05:24:34.112Z,6.20
2023-02-23T05:27:02.516Z,5.00
2023-02-23T05:29:32.115Z,18.30
2023-02-23T05:32:01.104Z,13.80
2023-02-23T05:34:29.961Z,8.40
2023-02-23T05:36:58.355Z,7.40
2023-02-23T05:39:26.937Z,6.90
2023-02-23T05:41:55.670Z,6.40
2023-02-23T05:44:25.366Z,9.70
2023-02-23T05:46:54.629Z,14.00
2023-02-23T05:49:23.212Z,19.10
2023-02-23T05:51:51.873Z,20.20
2023-02-23T05:54:20.478Z,8.00
2023-02-23T05:56:49.401Z,9.50
2023-02-23T05:59:18.587Z,11.10
2023-02-23T06:01:47.246Z,9.30
2023-02-23T06:04:15.690Z,7.70
2023-02-23T06:06:45.654Z,6.90
2023-02-23T06:09:19.261Z,8.40
2023-02-23T06:11:49.816Z,7.40
2023-02-23T06:14:18.307Z,6.00
2023-02-23T06:16:51.433Z,9.10
2023-02-23T06:19:20.324Z,7.50
2023-02-23T06:21:49.115Z,5.80
2023-02-23T06:24:18.034Z,5.50
2023-02-23T06:26:46.882Z,7.30
2023-02-23T06:29:15.877Z,5.90
2023-02-23T06:31:44.497Z,8.20
2023-02-23T06:34:13.793Z,12.30
2023-02-23T06:36:43.296Z,8.90
2023-02-23T06:39:13.807Z,12.90
2023-02-23T06:41:43.946Z,8.60
2023-02-23T06:44:12.481Z,8.30
2023-02-23T06:46:41.386Z,9.50
2023-02-23T06:49:12.018Z,8.20
2023-02-23T06:51:43.533Z,8.80
2023-02-23T06:54:12.657Z,6.40
2023-02-23T06:56:41.534Z,8.30
2023-02-23T06:59:09.974Z,11.90
2023-02-23T07:01:38.829Z,9.10
2023-02-23T07:04:07.853Z,9.20
2023-02-23T07:06:38.276Z,8.90
2023-02-23T07:09:07.045Z,8.00
2023-02-23T07:11:35.609Z,8.60
2023-02-23T07:14:04.104Z,10.00
2023-02-23T07:16:32.632Z,8.50
2023-02-23T07:19:01.225Z,13.10
2023-02-23T07:21:32.337Z,16.10
2023-02-23T07:24:01.280Z,13.20
2023-02-23T07:26:29.892Z,9.00
2023-02-23T07:28:58.342Z,16.50
2023-02-23T07:31:26.961Z,11.90
2023-02-23T07:33:56.402Z,10.50
2023-02-23T07:36:24.902Z,17.10
2023-02-23T07:38:55.797Z,13.60
2023-02-23T07:41:24.325Z,11.90
2023-02-23T07:43:52.833Z,11.30
2023-02-23T07:46:21.377Z,9.40
2023-02-23T07:48:50.259Z,12.90
2023-02-23T07:51:19.781Z,13.10
2023-02-23T07:53:49.753Z,12.30
2023-02-23T07:56:18.214Z,8.90
2023-02-23T07:58:48.899Z,20.70
2023-02-23T08:01:17.821Z,15.60
2023-02-23T08:03:49.892Z,13.10
2023-02-23T08:06:19.668Z,19.40
2023-02-23T08:08:48.883Z,11.50
2023-02-23T08:11:20.739Z,20.20
2023-02-23T08:13:50.637Z,17.40
2023-02-23T08:16:19.652Z,9.50
2023-02-23T08:18:48.266Z,26.00
2023-02-23T08:21:17.272Z,25.50
2023-02-23T08:23:45.898Z,27.80
2023-02-23T08:26:16.645Z,30.50
2023-02-23T08:28:46.824Z,32.50
2023-02-23T08:31:16.547Z,20.00
2023-02-23T08:33:46.124Z,32.00
2023-02-23T08:36:14.550Z,17.70
2023-02-23T08:38:43.059Z,13.50
2023-02-23T08:41:11.604Z,21.50
2023-02-23T08:43:44.122Z,13.00
2023-02-23T08:46:13.123Z,19.60
2023-02-23T08:49:15.074Z,17.50
2023-02-23T08:51:46.176Z,11.30
2023-02-23T08:54:16.489Z,11.90
2023-02-23T08:56:45.736Z,12.10
2023-02-23T08:59:14.652Z,11.80
2023-02-23T09:01:44.060Z,10.30
2023-02-23T09:04:13.390Z,11.20
2023-02-23T09:06:41.861Z,7.40
2023-02-23T09:09:10.710Z,8.50
2023-02-23T09:11:39.293Z,14.30
2023-02-23T09:14:08.945Z,13.10
2023-02-23T09:16:37.579Z,12.60
2023-02-23T09:19:10.085Z,17.20
2023-02-23T09:21:38.838Z,11.40
2023-02-23T09:24:07.732Z,10.80
2023-02-23T09:26:40.225Z,18.90
2023-02-23T09:29:08.890Z,11.30
2023-02-23T09:31:38.974Z,22.70
2023-02-23T09:34:09.639Z,15.20
2023-02-23T09:39:09.498Z,14.60
2023-02-23T09:41:47.166Z,15.00
2023-02-23T09:44:42.166Z,15.10
2023-02-23T09:47:18.904Z,13.60
2023-02-23T09:49:48.962Z,26.60
2023-02-23T09:52:24.324Z,35.70
2023-02-23T09:54:52.777Z,12.70
2023-02-23T09:57:29.835Z,11.50
2023-02-23T09:59:59.782Z,16.80
2023-02-23T10:02:51.510Z,7.90
2023-02-23T10:05:20.001Z,11.60
2023-02-23T10:07:52.807Z,12.80
2023-02-23T10:10:41.490Z,10.30
2023-02-23T10:13:46.469Z,19.10
2023-02-23T10:16:38.232Z,20.40
2023-02-23T10:19:11.057Z,10.60
2023-02-23T10:21:43.884Z,12.40
2023-02-23T10:24:46.060Z,9.50
2023-02-23T10:28:28.827Z,14.30
2023-02-23T10:31:19.764Z,11.20
2023-02-23T10:33:51.720Z,11.40
2023-02-23T10:36:46.315Z,10.10
2023-02-23T10:39:15.069Z,10.90
2023-02-23T10:41:43.975Z,17.60
2023-02-23T10:44:25.417Z,9.70
2023-02-23T10:47:20.306Z,7.40
2023-02-23T10:49:51.385Z,11.00
2023-02-23T10:52:23.163Z,10.10
2023-02-23T10:54:52.098Z,8.20
2023-02-23T10:57:33.570Z,10.60
2023-02-23T11:00:28.748Z,8.40
2023-02-23T11:02:58.832Z,12.10
2023-02-23T11:05:28.816Z,14.30
2023-02-23T11:08:37.518Z,16.40
2023-02-23T11:11:16.100Z,10.20
2023-02-23T11:13:46.812Z,11.80
2023-02-23T11:16:19.932Z,8.20
2023-02-23T11:18:58.795Z,10.10
2023-02-23T11:21:34.189Z,8.70
2023-02-23T11:24:43.273Z,8.40
2023-02-23T11:27:23.486Z,10.10
2023-02-23T11:29:56.239Z,12.10
2023-02-23T11:32:29.030Z,11.00
2023-02-23T11:35:17.539Z,12.70
2023-02-23T11:37:46.558Z,10.40
2023-02-23T11:40:35.030Z,10.60
2023-02-23T11:43:07.603Z,12.10
2023-02-23T11:46:01.093Z,9.30
2023-02-23T11:48:43.383Z,8.60
2023-02-23T11:51:13.601Z,39.50
2023-02-23T11:53:45.773Z,36.50
2023-02-23T11:56:14.747Z,10.60
2023-02-23T11:58:45.300Z,15.30
2023-02-23T12:01:21.502Z,13.90
2023-02-23T12:03:57.555Z,10.10
2023-02-23T12:06:31.069Z,9.10
2023-02-23T12:09:13.222Z,9.10
2023-02-23T12:11:45.701Z,6.70
2023-02-23T12:14:41.636Z,6.50
2023-02-23T12:17:28.144Z,7.30
2023-02-23T12:20:02.903Z,6.40
2023-02-23T12:22:40.076Z,6.80
2023-02-23T12:25:32.464Z,6.20
2023-02-23T12:28:28.369Z,7.20
2023-02-23T12:31:05.090Z,7.60
2023-02-23T12:33:42.481Z,9.20
2023-02-23T12:36:35.680Z,10.10
2023-02-23T12:39:33.340Z,9.20
2023-02-23T12:42:08.156Z,11.10
2023-02-23T12:45:04.284Z,6.40
2023-02-23T12:47:36.872Z,7.30
2023-02-23T12:50:13.578Z,14.70
2023-02-23T12:53:01.825Z,11.00
2023-02-23T12:55:41.793Z,8.80
2023-02-23T12:58:21.552Z,10.30
2023-02-23T13:01:00.044Z,11.30
2023-02-23T13:04:12.774Z,9.00
2023-02-23T13:07:21.057Z,10.90
2023-02-23T13:10:31.230Z,9.90
2023-02-23T13:13:11.897Z,11.80
2023-02-23T13:16:33.658Z,9.50
2023-02-23T13:19:39.093Z,8.50
2023-02-23T13:22:30.521Z,6.80
2023-02-23T13:25:04.616Z,13.70
2023-02-23T13:27:46.595Z,9.30
2023-02-23T13:30:21.456Z,14.40
2023-02-23T13:32:50.667Z,7.60
2023-02-23T13:35:21.936Z,12.00
2023-02-23T13:37:53.530Z,18.60
2023-02-23T13:40:47.194Z,12.60
2023-02-23T13:43:30.197Z,8.00
2023-02-23T13:46:27.807Z,9.00
2023-02-23T13:49:09.131Z,7.50
2023-02-23T13:51:39.418Z,10.40
2023-02-23T13:54:32.170Z,13.60
2023-02-23T13:57:02.602Z,8.70
2023-02-23T13:59:37.232Z,8.50
2023-02-23T14:02:33.628Z,15.30
2023-02-23T14:05:21.313Z,6.50
2023-02-23T14:07:55.489Z,7.90
2023-02-23T14:10:48.835Z,11.40
2023-02-23T14:13:18.467Z,13.40
2023-02-23T14:16:11.686Z,8.60
2023-02-23T14:19:12.081Z,11.50
2023-02-23T14:21:56.479Z,29.30
2023-02-23T14:24:26.477Z,10.80
2023-02-23T14:27:04.882Z,33.30
2023-02-23T14:29:59.382Z,38.00
2023-02-23T14:32:29.371Z,34.50
2023-02-23T14:34:59.682Z,10.90
2023-02-23T14:37:34.650Z,14.40
2023-02-23T14:40:15.247Z,13.00
2023-02-23T14:42:51.986Z,12.60
2023-02-23T14:45:29.058Z,13.10
2023-02-23T14:48:07.084Z,22.50
2023-02-23T14:50:36.700Z,22.40
2023-02-23T14:53:10.364Z,22.50
2023-02-23T14:55:42.228Z,22.10
2023-02-23T14:58:23.497Z,21.70
2023-02-23T15:00:52.459Z,18.70
2023-02-23T15:03:22.698Z,14.50
2023-02-23T15:05:55.598Z,9.60
2023-02-23T15:08:29.232Z,9.60
2023-02-23T15:11:08.620Z,9.80
2023-02-23T15:13:49.155Z,12.60
2023-02-23T15:16:36.064Z,12.20
2023-02-23T15:19:08.095Z,19.10
2023-02-23T15:21:40.168Z,42.40
2023-02-23T15:24:13.664Z,24.00
2023-02-23T15:26:43.950Z,20.40
2023-02-23T15:29:25.915Z,20.20
2023-02-23T15:31:55.695Z,17.20
2023-02-23T15:34:30.974Z,23.20
2023-02-23T15:37:05.887Z,21.90
2023-02-23T15:40:02.917Z,50.90
2023-02-23T15:42:38.220Z,50.20
2023-02-23T15:45:36.473Z,61.80
2023-02-23T15:48:18.777Z,52.90
2023-02-23T15:50:51.205Z,58.70
2023-02-23T15:53:27.725Z,38.60
2023-02-23T15:56:10.295Z,34.60
2023-02-23T16:01:31.236Z,26.40
2023-02-23T16:04:08.117Z,19.00
2023-02-23T16:06:38.946Z,13.90
2023-02-23T16:09:24.263Z,11.70
2023-02-23T16:11:53.184Z,12.70
2023-02-23T16:14:24.417Z,10.50
2023-02-23T16:17:09.906Z,11.60
2023-02-23T16:19:41.891Z,16.60
2023-02-23T16:22:32.079Z,37.80
2023-02-23T16:25:05.580Z,25.40
2023-02-23T16:27:34.003Z,26.90
2023-02-23T16:30:23.627Z,31.50
2023-02-23T16:33:08.019Z,21.90
2023-02-23T16:35:45.634Z,21.30
2023-02-23T16:38:34.043Z,19.40
2023-02-23T16:41:04.559Z,20.50
2023-02-23T16:43:35.237Z,17.90
2023-02-23T16:46:03.860Z,14.90
2023-02-23T16:48:32.874Z,15.80
2023-02-23T16:51:01.763Z,25.70
2023-02-23T16:53:30.343Z,26.30
2023-02-23T16:56:01.210Z,15.70
2023-02-23T16:58:31.817Z,12.20
2023-02-23T17:01:02.815Z,12.10
2023-02-23T17:03:34.210Z,10.70
2023-02-23T17:06:09.746Z,12.80
2023-02-23T17:08:43.416Z,13.00
2023-02-23T17:11:14.600Z,13.10
2023-02-23T17:13:44.821Z,9.30
2023-02-23T17:16:13.607Z,8.90
2023-02-23T17:18:43.080Z,8.90
2023-02-23T17:21:13.944Z,8.90
2023-02-23T17:23:51.450Z,8.30
2023-02-23T17:26:24.724Z,9.70
2023-02-23T17:28:54.231Z,10.80
2023-02-23T17:31:25.740Z,10.90
2023-02-23T17:33:56.113Z,12.70
2023-02-23T17:36:27.758Z,11.60
2023-02-23T17:38:58.881Z,9.90
2023-02-23T17:41:27.686Z,8.70
2023-02-23T17:43:57.303Z,8.20
2023-02-23T17:46:26.072Z,8.10
2023-02-23T17:48:56.203Z,9.30
2023-02-23T17:51:25.108Z,10.00
2023-02-23T17:53:54.394Z,10.80
2023-02-23T17:56:24.418Z,10.90
2023-02-23T17:58:53.403Z,10.90
2023-02-23T18:01:22.273Z,9.60
2023-02-23T18:03:51.488Z,10.00
2023-02-23T18:06:20.280Z,10.80
2023-02-23T18:08:49.577Z,11.90
2023-02-23T18:11:20.109Z,13.10
2023-02-23T18:13:51.524Z,13.60
2023-02-23T18:16:20.842Z,17.90
2023-02-23T18:18:49.649Z,17.60
2023-02-23T18:21:20.526Z,15.20
2023-02-23T18:23:50.216Z,15.80
2023-02-23T18:26:20.740Z,21.90
2023-02-23T18:28:49.917Z,22.60
2023-02-23T18:31:23.509Z,26.50
2023-02-23T18:33:55.078Z,30.10
2023-02-23T18:36:29.288Z,27.70
2023-02-23T18:38:59.537Z,19.50
2023-02-23T18:41:31.130Z,19.00
2023-02-23T18:44:01.726Z,16.60
2023-02-23T18:46:33.578Z,15.50
2023-02-23T18:49:03.983Z,15.30
2023-02-23T18:51:33.389Z,14.50
2023-02-23T18:54:03.712Z,15.50
2023-02-23T18:56:32.297Z,14.60
2023-02-23T18:59:01.999Z,15.70
2023-02-23T19:01:33.539Z,15.60
2023-02-23T19:04:02.573Z,17.10
2023-02-23T19:06:32.166Z,17.20
2023-02-23T19:09:04.524Z,18.10
2023-02-23T19:11:34.340Z,18.90
2023-02-23T19:14:09.585Z,15.60
2023-02-23T19:16:38.516Z,13.00
2023-02-23T19:19:08.123Z,11.90
2023-02-23T19:21:38.713Z,14.40
2023-02-23T19:24:08.122Z,15.10
2023-02-23T19:26:37.609Z,15.00
2023-02-23T19:29:06.503Z,14.50
2023-02-23T19:31:37.083Z,14.90
2023-02-23T19:34:09.094Z,13.70
2023-02-23T19:36:38.087Z,13.60
2023-02-23T19:39:11.385Z,15.10
2023-02-23T19:41:40.999Z,15.20
2023-02-23T19:44:10.699Z,15.50
2023-02-23T19:46:43.277Z,15.50
2023-02-23T19:49:12.125Z,16.20
2023-02-23T19:51:41.479Z,16.10
2023-02-23T19:54:10.664Z,17.30
2023-02-23T19:56:39.862Z,18.90
2023-02-23T19:59:08.860Z,18.40
2023-02-23T20:01:38.072Z,17.00
2023-02-23T20:04:08.584Z,19.60
2023-02-23T20:06:45.098Z,18.00
2023-02-23T20:09:14.453Z,17.50
2023-02-23T20:11:49.592Z,17.50
2023-02-23T20:14:18.884Z,16.60
2023-02-23T20:16:48.776Z,15.10
2023-02-23T20:19:18.202Z,16.40
2023-02-23T20:21:47.744Z,14.10
2023-02-23T20:24:25.917Z,14.60
2023-02-23T20:26:58.391Z,13.70
2023-02-23T20:29:28.508Z,13.00
2023-02-23T20:31:58.368Z,13.40
2023-02-23T20:34:27.113Z,13.20
2023-02-23T20:36:56.101Z,11.80
2023-02-23T20:39:25.094Z,10.50
2023-02-23T20:41:55.325Z,11.80
2023-02-23T20:44:24.507Z,12.00
2023-02-23T20:46:53.406Z,12.80
2023-02-23T20:49:24.549Z,11.80
2023-02-23T20:51:54.569Z,11.20
2023-02-23T20:54:23.985Z,11.60
2023-02-23T20:56:59.202Z,11.30
2023-02-23T20:59:32.606Z,12.00
2023-02-23T21:02:02.623Z,11.40
2023-02-23T21:04:32.336Z,11.30
2023-02-23T21:07:01.439Z,10.50
2023-02-23T21:09:31.141Z,9.70
2023-02-23T21:11:59.960Z,10.30
2023-02-23T21:14:30.048Z,9.60
2023-02-23T21:16:58.966Z,9.20
2023-02-23T21:19:27.625Z,9.20
2023-02-23T21:21:58.465Z,8.70
2023-02-23T21:24:27.146Z,9.50
2023-02-23T21:26:55.734Z,8.60
2023-02-23T21:29:24.722Z,8.40
2023-02-23T21:31:54.322Z,8.60
2023-02-23T21:34:23.017Z,8.90
2023-02-23T21:36:52.938Z,10.40
2023-02-23T21:39:23.065Z,11.60
2023-02-23T21:41:52.453Z,9.60
2023-02-23T21:44:21.140Z,9.60
2023-02-23T21:46:51.818Z,9.80
2023-02-23T21:49:20.773Z,9.70
2023-02-23T21:51:52.477Z,9.80
2023-02-23T21:54:21.820Z,10.70
2023-02-23T21:56:50.500Z,9.30
2023-02-23T21:59:20.319Z,8.90
2023-02-23T22:01:49.050Z,8.80
2023-02-23T22:04:17.999Z,8.90
2023-02-23T22:06:46.678Z,9.10
2023-02-23T22:09:16.098Z,7.70
2023-02-23T22:11:46.650Z,7.70
2023-02-23T22:14:17.108Z,7.00
2023-02-23T22:16:46.746Z,7.10
2023-02-23T22:19:16.759Z,6.60
2023-02-23T22:21:48.065Z,5.40
2023-02-23T22:24:17.106Z,5.60
2023-02-23T22:26:55.433Z,5.80
2023-02-23T22:29:25.448Z,6.20
2023-02-23T22:31:54.067Z,5.50
2023-02-23T22:34:23.110Z,6.30
2023-02-23T22:36:54.866Z,6.20
2023-02-23T22:39:23.756Z,6.40
2023-02-23T22:41:52.243Z,6.40
2023-02-23T22:44:23.279Z,6.10
2023-02-23T22:46:53.369Z,5.90
2023-02-23T22:49:21.983Z,7.60
2023-02-23T22:51:50.885Z,7.00
2023-02-23T22:54:24.167Z,8.20
2023-02-23T22:56:52.753Z,6.70
2023-02-23T22:59:21.337Z,7.00
2023-02-23T23:01:56.772Z,6.00
2023-02-23T23:04:26.159Z,6.90
2023-02-23T23:06:54.759Z,7.30
2023-02-23T23:09:23.546Z,7.40
2023-02-23T23:11:52.330Z,7.90
2023-02-23T23:14:24.600Z,11.10
2023-02-23T23:16:53.619Z,13.50
2023-02-23T23:19:26.271Z,13.50
2023-02-23T23:21:55.998Z,11.10
2023-02-23T23:24:27.536Z,11.40
2023-02-23T23:27:00.479Z,10.40
2023-02-23T23:29:32.737Z,10.80
2023-02-23T23:32:04.963Z,9.50
2023-02-23T23:34:34.671Z,8.60
2023-02-23T23:37:04.689Z,8.20
2023-02-23T23:39:33.792Z,8.50
2023-02-23T23:42:05.957Z,8.20
2023-02-23T23:44:34.945Z,9.40
2023-02-23T23:47:05.678Z,9.20
2023-02-23T23:49:38.979Z,9.70
2023-02-23T23:52:08.682Z,9.50
2023-02-23T23:54:39.482Z,10.90
2023-02-23T23:57:08.321Z,9.80
2023-02-23T23:59:46.434Z,9.40
